createdAt,value
2022-08-02T00:01:01.048Z,99.35
2022-08-02T00:03:27.964Z,99.69
2022-08-02T00:05:55.134Z,99.77
2022-08-02T00:08:22.901Z,98.05
2022-08-02T00:10:52.662Z,96.90
2022-08-02T00:13:19.669Z,97.40
2022-08-02T00:15:48.003Z,97.26
2022-08-02T00:18:15.081Z,97.07
2022-08-02T00:20:42.000Z,97.35
2022-08-02T00:23:08.960Z,97.86
2022-08-02T00:25:36.900Z,97.27
2022-08-02T00:28:27.292Z,96.51
2022-08-02T00:30:55.563Z,96.93
2022-08-02T00:34:04.879Z,97.18
2022-08-02T00:36:09.497Z,97.33
2022-08-02T00:38:36.375Z,96.53
2022-08-02T00:41:04.347Z,97.81
2022-08-02T00:43:31.906Z,97.50
2022-08-02T00:46:03.754Z,97.13
2022-08-02T00:48:30.915Z,96.55
2022-08-02T00:50:59.302Z,96.16
2022-08-02T00:53:26.313Z,95.63
2022-08-02T00:55:54.310Z,95.96
2022-08-02T00:58:21.738Z,96.29
2022-08-02T01:00:48.706Z,97.19
2022-08-02T01:03:15.581Z,96.93
2022-08-02T01:06:09.179Z,97.30
2022-08-02T01:08:31.760Z,98.43
2022-08-02T01:10:59.232Z,99.07
2022-08-02T01:13:26.824Z,99.34
2022-08-02T01:16:04.547Z,98.94
2022-08-02T01:18:39.447Z,98.59
2022-08-02T01:21:35.799Z,97.96
2022-08-02T01:24:21.747Z,98.32
2022-08-02T01:27:11.333Z,99.20
2022-08-02T01:29:43.999Z,98.66
2022-08-02T01:32:19.194Z,99.12
2022-08-02T01:34:57.852Z,99.41
2022-08-02T01:37:40.164Z,99.30
2022-08-02T01:40:14.704Z,99.98
2022-08-02T01:42:47.765Z,99.89
2022-08-02T01:45:15.403Z,99.16
2022-08-02T01:47:43.883Z,98.38
2022-08-02T01:50:18.026Z,99.03
2022-08-02T01:52:53.451Z,99.99
2022-08-02T01:55:56.853Z,99.78
2022-08-02T01:58:27.703Z,100.00
2022-08-02T02:00:58.275Z,100.00
2022-08-02T02:03:26.841Z,100.00
2022-08-02T02:05:57.566Z,100.00
2022-08-02T02:08:31.735Z,100.00
2022-08-02T02:12:09.653Z,100.00
2022-08-02T02:13:49.377Z,100.00
2022-08-02T02:16:17.078Z,100.00
2022-08-02T02:18:45.482Z,100.00
2022-08-02T02:21:13.151Z,100.00
2022-08-02T02:23:40.791Z,100.00
2022-08-02T02:26:11.740Z,100.00
2022-08-02T02:28:48.082Z,100.00
2022-08-02T02:31:19.509Z,99.84
2022-08-02T02:33:55.156Z,99.53
2022-08-02T02:36:23.375Z,99.08
2022-08-02T02:38:53.224Z,99.83
2022-08-02T02:41:21.766Z,99.99
2022-08-02T02:43:49.831Z,99.65
2022-08-02T02:46:18.586Z,99.87
2022-08-02T02:48:45.690Z,100.00
2022-08-02T02:51:14.649Z,100.00
2022-08-02T02:54:32.848Z,99.83
2022-08-02T02:56:30.927Z,99.42
2022-08-02T02:59:00.742Z,100.00
2022-08-02T03:01:35.887Z,100.00
2022-08-02T03:04:16.238Z,100.00
2022-08-02T03:06:43.290Z,100.00
2022-08-02T03:09:11.520Z,100.00
2022-08-02T03:11:40.058Z,100.00
2022-08-02T03:14:12.232Z,100.00
2022-08-02T03:16:47.320Z,100.00
2022-08-02T03:19:15.276Z,100.00
2022-08-02T03:21:43.930Z,100.00
2022-08-02T03:24:13.754Z,100.00
2022-08-02T03:26:41.801Z,100.00
2022-08-02T03:29:10.281Z,100.00
2022-08-02T03:31:41.951Z,100.00
2022-08-02T03:34:08.965Z,100.00
2022-08-02T03:36:37.659Z,100.00
2022-08-02T03:39:05.571Z,100.00
2022-08-02T03:41:34.368Z,100.00
2022-08-02T03:44:02.484Z,100.00
2022-08-02T03:46:40.393Z,100.00
2022-08-02T03:49:08.637Z,100.00
2022-08-02T03:51:36.346Z,100.00
2022-08-02T03:54:04.050Z,100.00
2022-08-02T03:56:31.719Z,100.00
2022-08-02T03:59:12.569Z,100.00
2022-08-02T04:01:40.507Z,100.00
2022-08-02T04:04:08.355Z,100.00
2022-08-02T04:06:35.279Z,100.00
2022-08-02T04:09:07.107Z,100.00
2022-08-02T04:11:34.067Z,100.00
2022-08-02T04:14:11.321Z,100.00
2022-08-02T04:16:59.962Z,100.00
2022-08-02T04:19:32.010Z,100.00
2022-08-02T04:22:06.532Z,100.00
2022-08-02T04:24:40.349Z,100.00
2022-08-02T04:27:49.359Z,100.00
2022-08-02T04:29:57.993Z,100.00
2022-08-02T04:32:25.324Z,100.00
2022-08-02T04:35:18.261Z,100.00
2022-08-02T04:38:05.538Z,100.00
2022-08-02T04:40:27.010Z,100.00
2022-08-02T04:42:54.153Z,100.00
2022-08-02T04:45:22.124Z,100.00
2022-08-02T04:48:02.377Z,100.00
2022-08-02T04:50:31.011Z,100.00
2022-08-02T04:52:57.944Z,100.00
2022-08-02T04:55:28.983Z,100.00
2022-08-02T04:57:58.134Z,99.20
2022-08-02T05:00:27.670Z,100.00
2022-08-02T05:02:57.293Z,100.00
2022-08-02T05:06:18.840Z,100.00
2022-08-02T05:08:52.878Z,100.00
2022-08-02T05:11:20.781Z,100.00
2022-08-02T05:13:58.522Z,100.00
2022-08-02T05:16:31.356Z,99.75
2022-08-02T05:19:00.463Z,99.41
2022-08-02T05:21:33.899Z,98.57
2022-08-02T05:24:00.712Z,98.68
2022-08-02T05:26:27.626Z,98.26
2022-08-02T05:28:54.623Z,99.30
2022-08-02T05:31:21.520Z,100.00
2022-08-02T05:33:48.423Z,100.00
2022-08-02T05:36:15.853Z,100.00
2022-08-02T05:38:42.759Z,100.00
2022-08-02T05:41:19.417Z,100.00
2022-08-02T05:43:47.650Z,100.00
2022-08-02T05:46:14.667Z,100.00
2022-08-02T05:48:41.537Z,100.00
2022-08-02T05:51:34.965Z,100.00
2022-08-02T05:54:20.103Z,100.00
2022-08-02T05:57:05.464Z,100.00
2022-08-02T05:59:45.813Z,98.95
2022-08-02T06:02:30.824Z,98.52
2022-08-02T06:05:20.371Z,99.94
2022-08-02T06:07:50.168Z,100.00
2022-08-02T06:10:21.789Z,100.00
2022-08-02T06:13:17.749Z,100.00
2022-08-02T06:15:52.857Z,100.00
2022-08-02T06:18:27.949Z,100.00
2022-08-02T06:22:31.640Z,100.00
2022-08-02T06:23:57.897Z,100.00
2022-08-02T06:26:27.863Z,100.00
2022-08-02T06:28:57.689Z,100.00
2022-08-02T06:31:24.974Z,99.69
2022-08-02T06:33:52.311Z,97.80
2022-08-02T06:36:37.240Z,98.53
2022-08-02T06:39:10.528Z,99.87
2022-08-02T06:41:45.192Z,98.25
2022-08-02T06:44:45.691Z,99.60
2022-08-02T06:47:11.113Z,100.00
2022-08-02T06:49:51.751Z,99.37
2022-08-02T06:52:27.103Z,98.60
2022-08-02T06:54:57.211Z,98.85
2022-08-02T06:57:24.261Z,99.65
2022-08-02T06:59:51.367Z,99.17
2022-08-02T07:02:18.393Z,99.01
2022-08-02T07:04:45.262Z,99.49
2022-08-02T07:07:12.164Z,98.84
2022-08-02T07:09:39.081Z,98.68
2022-08-02T07:12:23.105Z,97.58
2022-08-02T07:14:50.007Z,96.99
2022-08-02T07:17:17.369Z,96.45
2022-08-02T07:19:44.999Z,96.40
2022-08-02T07:22:13.291Z,95.60
2022-08-02T07:24:57.892Z,90.76
2022-08-02T07:27:25.553Z,90.24
2022-08-02T07:29:53.233Z,90.99
2022-08-02T07:32:26.589Z,91.09
2022-08-02T07:34:55.477Z,87.92
2022-08-02T07:37:53.150Z,87.43
2022-08-02T07:40:21.013Z,85.03
2022-08-02T07:42:52.426Z,84.18
2022-08-02T07:45:22.888Z,84.00
2022-08-02T07:47:57.811Z,83.70
2022-08-02T07:50:25.163Z,87.70
2022-08-02T07:52:57.286Z,87.86
2022-08-02T07:55:39.086Z,83.07
2022-08-02T07:58:11.013Z,85.16
2022-08-02T08:00:41.096Z,86.34
2022-08-02T08:03:08.188Z,80.80
2022-08-02T08:05:35.217Z,81.47
2022-08-02T08:08:02.424Z,76.04
2022-08-02T08:10:35.578Z,75.90
2022-08-02T08:13:02.542Z,79.78
2022-08-02T08:15:29.520Z,77.52
2022-08-02T08:17:56.551Z,78.79
2022-08-02T08:20:23.716Z,78.27
2022-08-02T08:22:59.823Z,66.13
2022-08-02T08:25:27.772Z,70.79
2022-08-02T08:27:56.251Z,72.69
2022-08-02T08:30:23.244Z,67.59
2022-08-02T08:32:50.518Z,66.84
2022-08-02T08:35:17.996Z,64.92
2022-08-02T08:37:45.131Z,60.03
2022-08-02T08:40:13.133Z,58.92
2022-08-02T08:42:46.593Z,62.54
2022-08-02T08:45:13.568Z,61.06
2022-08-02T08:47:42.553Z,62.55
2022-08-02T08:50:20.091Z,62.25
2022-08-02T08:53:04.660Z,67.50
2022-08-02T08:55:34.814Z,66.25
2022-08-02T08:58:03.935Z,61.28
2022-08-02T09:00:33.930Z,61.00
2022-08-02T09:03:10.831Z,57.42
2022-08-02T09:05:39.772Z,58.25
2022-08-02T09:08:07.363Z,53.78
2022-08-02T09:10:45.935Z,57.86
2022-08-02T09:13:38.019Z,56.80
2022-08-02T09:16:11.425Z,56.88
2022-08-02T09:18:47.204Z,55.31
2022-08-02T09:21:17.260Z,53.32
2022-08-02T09:23:50.092Z,51.40
2022-08-02T09:26:20.489Z,51.84
2022-08-02T09:28:52.561Z,52.27
2022-08-02T09:31:22.967Z,52.53
2022-08-02T09:33:58.729Z,48.60
2022-08-02T09:36:28.355Z,49.33
2022-08-02T09:39:04.369Z,52.00
2022-08-02T09:41:41.552Z,51.48
2022-08-02T09:44:21.869Z,49.25
2022-08-02T09:46:48.931Z,50.84
2022-08-02T09:49:18.979Z,49.83
2022-08-02T09:51:46.869Z,49.03
2022-08-02T09:54:20.250Z,51.44
2022-08-02T09:56:51.422Z,50.54
2022-08-02T09:59:21.850Z,47.35
2022-08-02T10:01:51.517Z,48.91
2022-08-02T10:04:32.062Z,48.46
2022-08-02T10:07:04.583Z,49.64
2022-08-02T10:09:32.972Z,49.03
2022-08-02T10:12:08.593Z,48.64
2022-08-02T10:14:36.200Z,47.43
2022-08-02T10:17:07.040Z,46.94
2022-08-02T10:20:01.921Z,45.29
2022-08-02T10:22:25.585Z,46.03
2022-08-02T10:24:53.814Z,43.57
2022-08-02T10:27:21.629Z,44.36
2022-08-02T10:29:54.286Z,43.58
2022-08-02T10:32:37.791Z,44.68
2022-08-02T10:35:19.593Z,44.05
2022-08-02T10:38:03.675Z,43.03
2022-08-02T10:40:50.700Z,43.51
2022-08-02T10:43:32.791Z,44.18
2022-08-02T10:46:34.393Z,44.43
2022-08-02T10:52:02.759Z,43.49
2022-08-02T10:54:37.276Z,43.06
2022-08-02T10:57:19.337Z,43.18
2022-08-02T10:59:46.971Z,43.61
2022-08-02T11:02:14.663Z,43.66
2022-08-02T11:04:41.737Z,43.76
2022-08-02T11:07:14.532Z,43.86
2022-08-02T11:09:43.663Z,43.79
2022-08-02T11:12:16.497Z,44.38
2022-08-02T11:14:47.587Z,43.23
2022-08-02T11:17:17.264Z,43.61
2022-08-02T11:20:09.390Z,44.74
2022-08-02T11:22:36.703Z,45.04
2022-08-02T11:26:02.629Z,45.44
2022-08-02T11:28:25.454Z,45.29
2022-08-02T11:31:00.601Z,41.32
2022-08-02T11:33:33.369Z,44.33
2022-08-02T11:36:07.569Z,43.32
2022-08-02T11:38:34.632Z,40.87
2022-08-02T11:41:06.459Z,41.37
2022-08-02T11:43:38.211Z,42.71
2022-08-02T11:46:05.944Z,42.57
2022-08-02T11:48:39.229Z,42.70
2022-08-02T11:51:17.663Z,42.13
2022-08-02T11:53:58.936Z,41.18
2022-08-02T11:56:34.591Z,41.14
2022-08-02T11:59:10.511Z,41.81
2022-08-02T12:01:46.184Z,39.56
2022-08-02T12:04:19.413Z,39.28
2022-08-02T12:06:58.833Z,39.41
2022-08-02T12:09:28.932Z,39.32
2022-08-02T12:11:57.547Z,40.78
2022-08-02T12:14:28.040Z,40.84
2022-08-02T12:17:13.738Z,40.06
2022-08-02T12:19:42.718Z,38.80
2022-08-02T12:22:27.280Z,39.08
2022-08-02T12:24:57.093Z,38.85
2022-08-02T12:27:37.858Z,40.10
2022-08-02T12:30:14.235Z,39.44
2022-08-02T12:32:42.494Z,39.49
2022-08-02T12:35:14.454Z,40.25
2022-08-02T12:37:53.355Z,39.98
2022-08-02T12:40:29.761Z,37.78
2022-08-02T12:43:00.702Z,38.17
2022-08-02T12:45:40.813Z,38.09
2022-08-02T12:48:08.723Z,37.25
2022-08-02T12:50:37.807Z,36.49
2022-08-02T12:53:10.840Z,36.71
2022-08-02T12:56:02.024Z,35.91
2022-08-02T12:58:49.738Z,36.70
2022-08-02T13:01:27.754Z,35.14
2022-08-02T13:04:09.059Z,33.79
2022-08-02T13:06:43.890Z,34.56
2022-08-02T13:09:17.287Z,35.08
2022-08-02T13:11:45.193Z,33.60
2022-08-02T13:14:14.335Z,34.23
2022-08-02T13:16:43.290Z,33.98
2022-08-02T13:19:10.478Z,34.58
2022-08-02T13:21:41.157Z,34.83
2022-08-02T13:24:40.250Z,33.99
2022-08-02T13:27:11.965Z,34.00
2022-08-02T13:29:39.015Z,34.13
2022-08-02T13:32:06.285Z,34.83
2022-08-02T13:34:33.584Z,34.58
2022-08-02T13:37:00.755Z,34.94
2022-08-02T13:39:27.899Z,34.51
2022-08-02T13:42:05.702Z,34.76
2022-08-02T13:44:34.430Z,35.69
2022-08-02T13:47:26.677Z,34.49
2022-08-02T13:50:17.479Z,35.12
2022-08-02T13:53:16.010Z,33.03
2022-08-02T13:55:52.237Z,32.78
2022-08-02T13:58:24.876Z,32.68
2022-08-02T14:00:52.022Z,32.63
2022-08-02T14:04:08.528Z,32.92
2022-08-02T14:06:30.623Z,31.20
2022-08-02T14:09:00.519Z,31.27
2022-08-02T14:11:31.190Z,31.68
2022-08-02T14:13:59.059Z,31.73
2022-08-02T14:16:33.123Z,32.68
2022-08-02T14:19:00.651Z,33.63
2022-08-02T14:21:27.852Z,33.58
2022-08-02T14:23:54.962Z,33.40
2022-08-02T14:26:26.965Z,33.53
2022-08-02T14:28:59.739Z,31.63
2022-08-02T14:31:26.813Z,31.84
2022-08-02T14:33:53.953Z,31.36
2022-08-02T14:36:31.594Z,30.59
2022-08-02T14:38:58.641Z,31.39
2022-08-02T14:41:25.899Z,31.31
2022-08-02T14:44:04.795Z,30.06
2022-08-02T14:46:34.509Z,29.92
2022-08-02T14:49:03.751Z,29.62
2022-08-02T14:51:32.109Z,29.71
2022-08-02T14:54:02.390Z,30.10
2022-08-02T14:59:35.322Z,30.38
2022-08-02T15:02:25.876Z,29.22
2022-08-02T15:04:53.132Z,29.99
2022-08-02T15:07:20.593Z,29.76
2022-08-02T15:09:48.914Z,31.56
2022-08-02T15:12:19.118Z,30.60
2022-08-02T15:17:13.694Z,28.81
2022-08-02T15:19:58.016Z,29.43
2022-08-02T15:22:28.021Z,28.71
2022-08-02T15:24:55.913Z,29.87
2022-08-02T15:27:22.949Z,29.05
2022-08-02T15:29:50.064Z,28.59
2022-08-02T15:32:20.577Z,28.92
2022-08-02T15:34:47.752Z,31.03
2022-08-02T15:37:14.536Z,27.68
2022-08-02T15:39:41.277Z,28.44
2022-08-02T15:42:08.185Z,28.86
2022-08-02T15:44:35.012Z,30.03
2022-08-02T15:47:02.025Z,29.76
2022-08-02T15:49:28.938Z,30.80
2022-08-02T15:51:55.938Z,31.76
2022-08-02T15:54:22.862Z,32.57
2022-08-02T15:56:49.872Z,33.03
2022-08-02T15:59:16.772Z,32.95
2022-08-02T16:01:47.581Z,33.62
2022-08-02T16:04:16.293Z,33.81
2022-08-02T16:06:43.927Z,32.73
2022-08-02T16:09:10.994Z,33.78
2022-08-02T16:11:38.324Z,34.10
2022-08-02T16:14:05.320Z,33.97
2022-08-02T16:16:36.151Z,34.43
2022-08-02T16:19:46.547Z,35.09
2022-08-02T16:21:53.491Z,33.84
2022-08-02T16:24:21.426Z,34.44
2022-08-02T16:26:48.661Z,34.04
2022-08-02T16:29:19.295Z,34.14
2022-08-02T16:31:48.268Z,34.04
2022-08-02T16:34:16.434Z,33.29
2022-08-02T16:36:43.725Z,33.20
2022-08-02T16:39:10.639Z,33.70
2022-08-02T16:41:51.036Z,33.85
2022-08-02T16:44:29.130Z,33.24
2022-08-02T16:47:01.147Z,33.57
2022-08-02T16:50:06.752Z,33.25
2022-08-02T16:52:20.004Z,33.82
2022-08-02T16:54:49.906Z,33.66
2022-08-02T16:57:19.833Z,33.61
2022-08-02T16:59:57.772Z,32.57
2022-08-02T17:02:26.542Z,33.32
2022-08-02T17:04:54.609Z,33.08
2022-08-02T17:08:06.132Z,32.91
2022-08-02T17:10:09.006Z,32.60
2022-08-02T17:12:36.507Z,32.46
2022-08-02T17:16:07.942Z,32.72
2022-08-02T17:17:51.513Z,33.07
2022-08-02T17:20:20.744Z,33.68
2022-08-02T17:22:47.829Z,34.18
2022-08-02T17:25:17.604Z,35.37
2022-08-02T17:27:45.064Z,34.90
2022-08-02T17:30:13.449Z,35.90
2022-08-02T17:32:40.481Z,36.02
2022-08-02T17:35:15.691Z,37.18
2022-08-02T17:37:54.423Z,37.51
2022-08-02T17:40:26.577Z,37.77
2022-08-02T17:42:53.329Z,37.94
2022-08-02T17:45:25.765Z,37.72
2022-08-02T17:48:04.753Z,38.72
2022-08-02T17:50:34.003Z,38.72
2022-08-02T17:53:01.404Z,38.90
2022-08-02T17:55:31.006Z,39.69
2022-08-02T17:57:59.309Z,40.87
2022-08-02T18:00:34.457Z,41.97
2022-08-02T18:03:05.798Z,42.94
2022-08-02T18:08:24.161Z,43.63
2022-08-02T18:10:55.857Z,44.41
2022-08-02T18:13:23.617Z,45.57
2022-08-02T18:15:59.347Z,46.50
2022-08-02T18:18:29.737Z,46.37
2022-08-02T18:20:57.504Z,46.76
2022-08-02T18:23:24.473Z,47.34
2022-08-02T18:25:55.175Z,47.67
2022-08-02T18:28:26.687Z,48.54
2022-08-02T18:30:54.122Z,48.86
2022-08-02T18:33:54.618Z,49.55
2022-08-02T18:36:10.194Z,49.87
2022-08-02T18:38:41.076Z,49.99
2022-08-02T18:41:12.960Z,50.89
2022-08-02T18:43:43.737Z,51.67
2022-08-02T18:46:15.980Z,52.21
2022-08-02T18:48:46.411Z,51.86
2022-08-02T18:51:15.148Z,53.33
2022-08-02T18:53:43.037Z,52.88
2022-08-02T18:56:19.777Z,54.07
2022-08-02T18:58:55.950Z,55.07
2022-08-02T19:01:32.090Z,56.43
2022-08-02T19:04:02.832Z,56.42
2022-08-02T19:06:30.116Z,57.11
2022-08-02T19:09:04.925Z,57.95
2022-08-02T19:11:35.339Z,58.70
2022-08-02T19:14:02.429Z,58.46
2022-08-02T19:16:37.097Z,58.94
2022-08-02T19:19:06.467Z,59.00
2022-08-02T19:22:26.582Z,60.32
2022-08-02T19:24:20.630Z,61.11
2022-08-02T19:26:51.831Z,60.98
2022-08-02T19:29:42.370Z,61.46
2022-08-02T19:32:10.409Z,61.08
2022-08-02T19:34:56.127Z,61.78
2022-08-02T19:37:23.113Z,64.03
2022-08-02T19:39:50.683Z,63.73
2022-08-02T19:42:18.769Z,64.64
2022-08-02T19:44:46.494Z,64.42
2022-08-02T19:47:19.290Z,65.22
2022-08-02T19:49:48.796Z,64.92
2022-08-02T19:52:21.652Z,64.91
2022-08-02T19:54:54.291Z,65.93
2022-08-02T19:57:23.500Z,65.76
2022-08-02T19:59:54.006Z,65.96
2022-08-02T20:02:21.336Z,65.86
2022-08-02T20:04:50.206Z,66.30
2022-08-02T20:07:54.580Z,66.73
2022-08-02T20:10:11.137Z,67.51
2022-08-02T20:12:40.211Z,70.32
2022-08-02T20:15:14.633Z,70.01
2022-08-02T20:17:47.315Z,69.96
2022-08-02T20:20:15.237Z,69.44
2022-08-02T20:23:00.926Z,69.79
2022-08-02T20:25:48.734Z,71.21
2022-08-02T20:28:15.582Z,70.71
2022-08-02T20:30:42.834Z,70.62
2022-08-02T20:33:21.228Z,71.07
2022-08-02T20:35:49.698Z,71.15
2022-08-02T20:38:16.570Z,71.29
2022-08-02T20:40:43.888Z,71.11
2022-08-02T20:43:10.720Z,70.61
2022-08-02T20:45:37.557Z,70.52
2022-08-02T20:48:04.853Z,70.97
2022-08-02T20:50:50.838Z,71.12
2022-08-02T20:53:23.806Z,70.94
2022-08-02T20:55:54.738Z,71.89
2022-08-02T20:58:27.074Z,72.16
2022-08-02T21:00:58.805Z,72.60
2022-08-02T21:03:38.697Z,72.59
2022-08-02T21:06:09.666Z,72.53
2022-08-02T21:08:38.460Z,72.99
2022-08-02T21:11:09.258Z,72.96
2022-08-02T21:13:46.643Z,73.29
2022-08-02T21:16:18.478Z,74.44
2022-08-02T21:18:48.497Z,74.83
2022-08-02T21:21:16.743Z,75.08
2022-08-02T21:23:48.306Z,75.53
2022-08-02T21:26:25.711Z,75.94
2022-08-02T21:28:55.832Z,75.55
2022-08-02T21:31:22.706Z,75.27
2022-08-02T21:33:58.565Z,77.67
2022-08-02T21:36:32.699Z,78.37
2022-08-02T21:39:09.082Z,77.91
2022-08-02T21:41:46.709Z,76.88
2022-08-02T21:44:16.545Z,77.15
2022-08-02T21:46:49.254Z,76.32
2022-08-02T21:49:27.150Z,76.60
2022-08-02T21:52:12.696Z,76.65
2022-08-02T21:54:40.104Z,76.06
2022-08-02T21:57:15.686Z,77.02
2022-08-02T21:59:45.951Z,77.15
2022-08-02T22:02:14.429Z,76.94
2022-08-02T22:04:47.854Z,76.77
2022-08-02T22:07:23.973Z,77.17
2022-08-02T22:09:52.738Z,78.52
2022-08-02T22:12:20.272Z,79.78
2022-08-02T22:14:54.238Z,79.90
2022-08-02T22:17:51.317Z,80.50
2022-08-02T22:20:20.192Z,80.19
2022-08-02T22:23:04.077Z,79.26
2022-08-02T22:25:39.632Z,78.69
2022-08-02T22:30:56.857Z,79.61
2022-08-02T22:33:47.101Z,79.86
2022-08-02T22:36:33.589Z,80.81
2022-08-02T22:39:02.011Z,80.01
2022-08-02T22:42:01.071Z,81.05
2022-08-02T22:44:16.901Z,81.59
2022-08-02T22:46:45.513Z,81.04
2022-08-02T22:49:17.659Z,80.63
2022-08-02T22:51:59.555Z,80.64
2022-08-02T22:54:26.327Z,80.91
2022-08-02T22:56:53.350Z,81.93
2022-08-02T22:58:43.167Z,43.11
2022-08-02T22:59:10.425Z,78.73
2022-08-02T22:59:20.167Z,81.94
2022-08-02T23:02:05.677Z,82.43
2022-08-02T23:04:32.738Z,82.04
2022-08-02T23:06:59.578Z,83.04
2022-08-02T23:09:26.458Z,82.07
2022-08-02T23:11:53.430Z,83.36
2022-08-02T23:14:20.453Z,82.73
2022-08-02T23:17:05.526Z,82.69
2022-08-02T23:19:50.594Z,82.97
2022-08-02T23:22:19.548Z,84.38
2022-08-02T23:24:46.443Z,83.63
2022-08-02T23:27:13.352Z,83.37
2022-08-02T23:29:40.138Z,83.15
2022-08-02T23:32:07.059Z,82.63
2022-08-02T23:34:34.747Z,82.34
2022-08-02T23:37:04.027Z,81.84
2022-08-02T23:39:32.262Z,81.09
2022-08-02T23:41:59.213Z,81.58
2022-08-02T23:44:26.921Z,82.34
2022-08-02T23:46:55.492Z,83.29
2022-08-02T23:49:23.818Z,82.48
2022-08-02T23:51:51.646Z,82.38
2022-08-02T23:54:19.561Z,82.49
2022-08-02T23:56:46.656Z,82.46
2022-08-02T23:59:14.553Z,83.31
